createdAt,value
2022-08-26T00:04:42.038Z,29.19
2022-08-26T00:09:47.599Z,29.36
2022-08-26T00:14:51.209Z,29.31
2022-08-26T00:19:54.974Z,29.47
2022-08-26T00:24:59.767Z,29.41
2022-08-26T00:30:03.770Z,29.30
2022-08-26T00:35:08.854Z,29.28
2022-08-26T00:40:16.410Z,29.19
2022-08-26T00:45:20.847Z,29.09
2022-08-26T00:50:27.706Z,28.86
2022-08-26T00:55:38.163Z,29.01
2022-08-26T01:00:41.846Z,28.93
2022-08-26T01:06:06.630Z,28.65
2022-08-26T01:11:17.677Z,28.82
2022-08-26T01:16:22.405Z,28.78
2022-08-26T01:21:29.814Z,28.54
2022-08-26T01:26:40.414Z,28.63
2022-08-26T01:31:47.494Z,28.58
2022-08-26T01:36:54.213Z,28.48
2022-08-26T01:42:03.024Z,28.59
2022-08-26T01:47:08.093Z,28.55
2022-08-26T01:52:13.762Z,28.40
2022-08-26T01:57:20.168Z,28.41
2022-08-26T02:02:24.594Z,28.50
2022-08-26T02:07:29.165Z,28.39
2022-08-26T02:12:34.660Z,28.31
2022-08-26T02:17:41.054Z,28.09
2022-08-26T02:22:46.045Z,28.19
2022-08-26T02:27:50.992Z,28.16
2022-08-26T02:32:54.776Z,28.24
2022-08-26T02:37:58.357Z,28.29
2022-08-26T02:43:03.971Z,28.30
2022-08-26T02:48:15.016Z,28.14
2022-08-26T02:53:24.954Z,28.19
2022-08-26T02:58:30.061Z,28.15
2022-08-26T03:03:33.946Z,28.07
2022-08-26T03:08:37.418Z,28.11
2022-08-26T03:13:42.423Z,28.10
2022-08-26T03:18:46.996Z,28.10
2022-08-26T03:23:56.063Z,27.95
2022-08-26T03:29:21.014Z,27.85
2022-08-26T03:34:24.763Z,27.70
2022-08-26T03:39:31.635Z,27.89
2022-08-26T03:44:37.658Z,27.72
2022-08-26T03:49:45.539Z,27.65
2022-08-26T03:54:49.166Z,27.60
2022-08-26T03:59:54.025Z,27.48
2022-08-26T04:04:57.883Z,27.50
2022-08-26T04:10:02.071Z,27.30
2022-08-26T04:15:08.503Z,27.39
2022-08-26T04:20:13.878Z,27.37
2022-08-26T04:25:20.529Z,27.22
2022-08-26T04:30:25.586Z,27.27
2022-08-26T04:35:29.003Z,27.27
2022-08-26T04:40:33.159Z,27.05
2022-08-26T04:45:38.200Z,27.30
2022-08-26T04:50:43.034Z,27.17
2022-08-26T04:55:46.597Z,27.32
2022-08-26T05:00:54.907Z,27.39
2022-08-26T05:05:59.035Z,27.31
2022-08-26T05:11:05.953Z,27.50
2022-08-26T05:16:12.362Z,27.44
2022-08-26T05:21:20.135Z,27.60
2022-08-26T05:26:25.047Z,27.67
2022-08-26T05:31:32.294Z,27.70
2022-08-26T05:36:36.946Z,27.73
2022-08-26T05:41:42.832Z,27.55
2022-08-26T05:46:49.743Z,27.65
2022-08-26T05:51:54.749Z,27.73
2022-08-26T05:56:58.194Z,27.78
2022-08-26T06:02:03.861Z,27.86
2022-08-26T06:07:07.486Z,27.79
2022-08-26T06:12:15.708Z,27.77
2022-08-26T06:17:23.324Z,27.71
2022-08-26T06:22:44.363Z,27.56
2022-08-26T06:27:48.842Z,28.02
2022-08-26T06:32:54.011Z,28.07
2022-08-26T06:37:58.295Z,28.21
2022-08-26T06:43:01.831Z,28.13
2022-08-26T06:48:07.591Z,28.32
2022-08-26T06:53:13.715Z,28.28
2022-08-26T06:58:17.825Z,28.09
2022-08-26T07:03:24.774Z,28.09
2022-08-26T07:08:28.297Z,28.17
2022-08-26T07:13:31.777Z,28.49
2022-08-26T07:18:37.662Z,28.69
2022-08-26T07:23:42.838Z,28.87
2022-08-26T07:28:48.549Z,29.05
2022-08-26T07:33:54.015Z,28.83
2022-08-26T07:38:58.454Z,29.03
2022-08-26T07:44:01.916Z,29.31
2022-08-26T07:49:09.305Z,29.26
2022-08-26T07:54:12.950Z,29.32
2022-08-26T07:59:18.463Z,29.50
2022-08-26T08:04:26.563Z,29.42
2022-08-26T08:09:30.303Z,29.81
2022-08-26T08:14:34.538Z,29.89
2022-08-26T08:19:39.650Z,29.87
2022-08-26T08:24:43.122Z,29.85
2022-08-26T08:29:47.379Z,29.72
2022-08-26T08:34:52.855Z,29.91
2022-08-26T08:39:56.348Z,30.16
2022-08-26T08:45:06.211Z,30.10
2022-08-26T08:50:21.226Z,30.31
2022-08-26T08:55:27.066Z,30.81
2022-08-26T09:00:39.664Z,31.05
2022-08-26T09:05:48.797Z,31.85
2022-08-26T09:10:55.492Z,32.45
2022-08-26T09:16:07.275Z,32.46
2022-08-26T09:21:14.033Z,32.88
2022-08-26T09:26:20.082Z,33.09
2022-08-26T09:31:27.368Z,33.38
2022-08-26T09:36:41.442Z,33.28
2022-08-26T09:41:45.119Z,33.77
2022-08-26T09:46:55.886Z,34.00
2022-08-26T09:52:23.404Z,33.58
2022-08-26T09:57:30.605Z,34.27
2022-08-26T10:02:41.527Z,34.72
2022-08-26T10:07:53.402Z,34.79
2022-08-26T10:13:04.843Z,35.49
2022-08-26T10:18:13.209Z,35.72
2022-08-26T10:23:20.356Z,36.46
2022-08-26T10:28:32.342Z,36.75
2022-08-26T10:33:38.756Z,36.74
2022-08-26T10:38:44.432Z,37.03
2022-08-26T10:43:51.999Z,36.91
2022-08-26T10:49:00.028Z,37.04
2022-08-26T10:54:07.736Z,37.45
2022-08-26T10:59:20.057Z,37.18
2022-08-26T11:04:44.391Z,37.69
2022-08-26T11:09:51.898Z,37.95
2022-08-26T11:14:59.062Z,37.68
2022-08-26T11:20:09.206Z,37.90
2022-08-26T11:25:19.261Z,38.07
2022-08-26T11:30:44.220Z,38.70
2022-08-26T11:35:50.015Z,38.73
2022-08-26T11:41:07.665Z,39.08
2022-08-26T11:46:13.599Z,38.39
2022-08-26T11:51:23.628Z,39.08
2022-08-26T11:56:31.772Z,38.15
2022-08-26T12:01:37.409Z,38.84
2022-08-26T12:06:47.930Z,39.46
2022-08-26T12:11:54.117Z,38.59
2022-08-26T12:17:10.370Z,37.94
2022-08-26T12:22:18.868Z,39.82
2022-08-26T12:27:27.346Z,40.26
2022-08-26T12:32:32.360Z,40.80
2022-08-26T12:37:39.739Z,41.06
2022-08-26T12:42:45.673Z,41.39
2022-08-26T12:47:49.132Z,40.71
2022-08-26T12:52:57.295Z,40.22
2022-08-26T12:58:23.666Z,39.55
2022-08-26T13:03:43.817Z,39.99
2022-08-26T13:08:48.293Z,40.16
2022-08-26T13:13:56.646Z,38.96
2022-08-26T13:19:02.357Z,38.43
2022-08-26T13:24:08.676Z,38.49
2022-08-26T13:29:14.109Z,37.07
2022-08-26T13:34:19.978Z,37.19
2022-08-26T13:39:24.319Z,37.18
2022-08-26T13:44:29.535Z,37.49
2022-08-26T13:49:33.096Z,37.66
2022-08-26T13:54:36.758Z,36.57
2022-08-26T13:59:41.624Z,37.02
2022-08-26T14:04:45.146Z,35.93
2022-08-26T14:09:48.603Z,36.24
2022-08-26T14:14:53.521Z,35.37
2022-08-26T14:19:57.008Z,35.20
2022-08-26T14:25:01.071Z,35.98
2022-08-26T14:30:06.703Z,36.36
2022-08-26T14:35:11.971Z,36.20
2022-08-26T14:40:18.621Z,35.93
2022-08-26T14:45:26.088Z,36.09
2022-08-26T14:50:30.650Z,36.54
2022-08-26T14:55:36.125Z,37.13
2022-08-26T15:00:40.985Z,37.10
2022-08-26T15:05:48.009Z,36.85
2022-08-26T15:10:52.849Z,36.31
2022-08-26T15:15:58.734Z,36.16
2022-08-26T15:21:03.626Z,36.00
2022-08-26T15:26:13.536Z,36.18
2022-08-26T15:31:20.108Z,35.87
2022-08-26T15:36:24.683Z,35.43
2022-08-26T15:41:29.248Z,34.61
2022-08-26T15:46:37.463Z,34.74
2022-08-26T15:51:45.144Z,33.93
2022-08-26T15:56:52.023Z,33.65
2022-08-26T16:01:57.586Z,32.93
2022-08-26T16:07:01.191Z,33.87
2022-08-26T16:12:05.156Z,33.76
2022-08-26T16:17:10.083Z,32.60
2022-08-26T16:22:13.559Z,31.87
2022-08-26T16:27:18.036Z,32.38
2022-08-26T16:32:22.902Z,31.84
2022-08-26T16:37:26.515Z,30.97
2022-08-26T16:42:29.968Z,32.18
2022-08-26T16:47:37.575Z,31.49
2022-08-26T16:52:41.768Z,31.08
2022-08-26T16:57:46.694Z,30.95
2022-08-26T17:02:51.590Z,29.76
2022-08-26T17:07:56.324Z,30.49
2022-08-26T17:13:00.336Z,30.25
2022-08-26T17:18:06.694Z,30.35
2022-08-26T17:23:10.335Z,30.36
2022-08-26T17:28:14.226Z,30.64
2022-08-26T17:33:24.431Z,30.40
2022-08-26T17:38:29.136Z,30.29
2022-08-26T17:43:32.659Z,29.11
2022-08-26T17:48:38.207Z,27.98
2022-08-26T17:53:42.240Z,28.54
2022-08-26T17:58:50.928Z,28.27
2022-08-26T18:04:00.365Z,28.67
2022-08-26T18:09:04.963Z,27.49
2022-08-26T18:14:13.384Z,27.27
2022-08-26T18:19:18.503Z,28.07
2022-08-26T18:24:22.065Z,28.80
2022-08-26T18:29:29.361Z,28.33
2022-08-26T18:34:35.554Z,27.82
2022-08-26T18:39:39.035Z,27.48
2022-08-26T18:44:43.707Z,28.33
2022-08-26T18:49:51.171Z,28.47
2022-08-26T18:54:55.325Z,28.57
2022-08-26T18:59:59.843Z,28.78
2022-08-26T19:05:06.833Z,28.47
2022-08-26T19:10:11.520Z,28.41
2022-08-26T19:15:15.011Z,28.26
2022-08-26T19:20:20.100Z,28.09
2022-08-26T19:25:23.584Z,28.24
2022-08-26T19:30:29.361Z,27.36
2022-08-26T19:35:35.914Z,26.78
2022-08-26T19:40:40.125Z,27.17
2022-08-26T19:45:43.569Z,26.54
2022-08-26T19:50:48.481Z,27.46
2022-08-26T19:55:52.362Z,27.59
2022-08-26T20:00:55.827Z,27.57
2022-08-26T20:06:00.979Z,27.34
2022-08-26T20:11:05.786Z,27.48
2022-08-26T20:16:10.235Z,27.00
2022-08-26T20:21:31.510Z,26.84
2022-08-26T20:26:36.765Z,27.10
2022-08-26T20:31:40.475Z,27.16
2022-08-26T20:36:46.638Z,27.18
2022-08-26T20:41:50.521Z,26.85
2022-08-26T20:46:55.210Z,25.98
2022-08-26T20:52:00.365Z,26.88
2022-08-26T20:57:03.909Z,26.85
2022-08-26T21:02:07.517Z,27.00
2022-08-26T21:07:12.445Z,27.18
2022-08-26T21:12:16.166Z,27.53
2022-08-26T21:17:19.686Z,27.39
2022-08-26T21:22:25.012Z,26.53
2022-08-26T21:27:28.546Z,26.28
2022-08-26T21:32:32.618Z,25.66
2022-08-26T21:37:37.494Z,25.09
2022-08-26T21:42:41.152Z,26.31
2022-08-26T21:47:45.680Z,26.07
2022-08-26T21:52:50.501Z,25.26
2022-08-26T21:57:53.990Z,25.87
2022-08-26T22:03:00.781Z,26.32
2022-08-26T22:08:05.706Z,25.56
2022-08-26T22:13:09.719Z,24.84
2022-08-26T22:18:13.178Z,25.28
2022-08-26T22:23:18.087Z,24.91
2022-08-26T22:28:21.613Z,25.06
2022-08-26T22:33:26.606Z,25.65
2022-08-26T22:38:31.653Z,26.14
2022-08-26T22:43:36.086Z,25.15
2022-08-26T22:48:39.623Z,25.11
2022-08-26T22:53:45.132Z,25.40
2022-08-26T22:58:49.086Z,25.22
2022-08-26T23:03:53.730Z,24.92
2022-08-26T23:08:58.597Z,25.58
2022-08-26T23:14:06.104Z,25.00
2022-08-26T23:19:11.400Z,24.70
2022-08-26T23:24:17.282Z,25.64
2022-08-26T23:29:20.767Z,25.11
2022-08-26T23:34:41.660Z,25.57
2022-08-26T23:39:46.480Z,25.41
2022-08-26T23:44:50.130Z,24.38
2022-08-26T23:49:53.622Z,24.47
2022-08-26T23:54:58.532Z,25.03
